sensor_id;sensor_type;location;lat;lon;timestamp;P1;durP1;ratioP1;P2;durP2;ratioP2
20114;SDS011;10218;42.874;25.320;2024-01-25T00:01:48;20.90;;;11.27;;
20114;SDS011;10218;42.874;25.320;2024-01-25T00:04:16;22.93;;;11.70;;
20114;SDS011;10218;42.874;25.320;2024-01-25T00:06:43;22.37;;;11.40;;
20114;SDS011;10218;42.874;25.320;2024-01-25T00:09:10;27.97;;;12.97;;
20114;SDS011;10218;42.874;25.320;2024-01-25T00:11:37;22.50;;;11.23;;
20114;SDS011;10218;42.874;25.320;2024-01-25T00:14:04;23.80;;;11.13;;
20114;SDS011;10218;42.874;25.320;2024-01-25T00:16:31;26.50;;;12.50;;
20114;SDS011;10218;42.874;25.320;2024-01-25T00:18:59;23.10;;;12.13;;
20114;SDS011;10218;42.874;25.320;2024-01-25T00:21:26;25.27;;;12.00;;
20114;SDS011;10218;42.874;25.320;2024-01-25T00:23:53;23.00;;;12.23;;
20114;SDS011;10218;42.874;25.320;2024-01-25T00:26:20;23.63;;;12.00;;
20114;SDS011;10218;42.874;25.320;2024-01-25T00:28:47;26.07;;;12.77;;
20114;SDS011;10218;42.874;25.320;2024-01-25T00:31:14;28.33;;;13.17;;
20114;SDS011;10218;42.874;25.320;2024-01-25T00:33:42;25.63;;;12.20;;
20114;SDS011;10218;42.874;25.320;2024-01-25T00:36:09;22.33;;;10.30;;
20114;SDS011;10218;42.874;25.320;2024-01-25T00:38:37;18.23;;;8.93;;
20114;SDS011;10218;42.874;25.320;2024-01-25T00:41:04;20.07;;;9.20;;
20114;SDS011;10218;42.874;25.320;2024-01-25T00:43:35;20.30;;;9.73;;
20114;SDS011;10218;42.874;25.320;2024-01-25T00:46:03;23.30;;;12.03;;
20114;SDS011;10218;42.874;25.320;2024-01-25T00:48:30;27.53;;;13.53;;
20114;SDS011;10218;42.874;25.320;2024-01-25T00:50:58;27.77;;;13.77;;
20114;SDS011;10218;42.874;25.320;2024-01-25T00:53:25;26.00;;;13.93;;
20114;SDS011;10218;42.874;25.320;2024-01-25T00:55:53;23.03;;;12.23;;
20114;SDS011;10218;42.874;25.320;2024-01-25T00:58:20;24.43;;;11.87;;
20114;SDS011;10218;42.874;25.320;2024-01-25T01:00:48;23.27;;;11.13;;
20114;SDS011;10218;42.874;25.320;2024-01-25T01:03:15;18.87;;;10.23;;
20114;SDS011;10218;42.874;25.320;2024-01-25T01:05:45;18.53;;;9.07;;
20114;SDS011;10218;42.874;25.320;2024-01-25T01:08:12;18.77;;;10.03;;
20114;SDS011;10218;42.874;25.320;2024-01-25T01:10:40;21.93;;;9.40;;
20114;SDS011;10218;42.874;25.320;2024-01-25T01:13:07;14.87;;;7.83;;
20114;SDS011;10218;42.874;25.320;2024-01-25T01:15:34;16.90;;;8.17;;
20114;SDS011;10218;42.874;25.320;2024-01-25T01:18:01;16.23;;;7.10;;
20114;SDS011;10218;42.874;25.320;2024-01-25T01:20:29;14.63;;;7.63;;
20114;SDS011;10218;42.874;25.320;2024-01-25T01:22:56;16.43;;;7.47;;
20114;SDS011;10218;42.874;25.320;2024-01-25T01:25:23;16.00;;;8.17;;
20114;SDS011;10218;42.874;25.320;2024-01-25T01:27:50;16.80;;;8.83;;
20114;SDS011;10218;42.874;25.320;2024-01-25T01:30:17;16.83;;;8.67;;
20114;SDS011;10218;42.874;25.320;2024-01-25T01:32:44;19.27;;;8.97;;
20114;SDS011;10218;42.874;25.320;2024-01-25T01:35:12;16.47;;;9.13;;
20114;SDS011;10218;42.874;25.320;2024-01-25T01:37:39;17.40;;;9.10;;
20114;SDS011;10218;42.874;25.320;2024-01-25T01:40:06;15.67;;;9.20;;
20114;SDS011;10218;42.874;25.320;2024-01-25T01:42:34;17.23;;;9.00;;
20114;SDS011;10218;42.874;25.320;2024-01-25T01:45:01;15.63;;;8.23;;
20114;SDS011;10218;42.874;25.320;2024-01-25T01:47:28;16.20;;;8.53;;
20114;SDS011;10218;42.874;25.320;2024-01-25T01:49:55;18.13;;;8.67;;
20114;SDS011;10218;42.874;25.320;2024-01-25T01:52:22;16.40;;;8.00;;
20114;SDS011;10218;42.874;25.320;2024-01-25T01:54:50;18.07;;;8.53;;
20114;SDS011;10218;42.874;25.320;2024-01-25T01:57:17;17.60;;;8.97;;
20114;SDS011;10218;42.874;25.320;2024-01-25T01:59:44;18.40;;;9.90;;
20114;SDS011;10218;42.874;25.320;2024-01-25T02:02:12;14.93;;;8.30;;
20114;SDS011;10218;42.874;25.320;2024-01-25T02:04:40;17.60;;;7.50;;
20114;SDS011;10218;42.874;25.320;2024-01-25T02:07:08;16.03;;;7.23;;
20114;SDS011;10218;42.874;25.320;2024-01-25T02:09:35;14.57;;;7.37;;
20114;SDS011;10218;42.874;25.320;2024-01-25T02:12:03;17.80;;;8.47;;
20114;SDS011;10218;42.874;25.320;2024-01-25T02:14:30;17.67;;;8.80;;
20114;SDS011;10218;42.874;25.320;2024-01-25T02:16:57;14.73;;;8.17;;
20114;SDS011;10218;42.874;25.320;2024-01-25T02:19:25;14.30;;;8.50;;
20114;SDS011;10218;42.874;25.320;2024-01-25T02:21:52;19.73;;;10.80;;
20114;SDS011;10218;42.874;25.320;2024-01-25T02:24:20;17.97;;;9.40;;
20114;SDS011;10218;42.874;25.320;2024-01-25T02:26:48;22.63;;;10.93;;
20114;SDS011;10218;42.874;25.320;2024-01-25T02:29:15;18.70;;;11.00;;
20114;SDS011;10218;42.874;25.320;2024-01-25T02:31:42;21.23;;;10.67;;
20114;SDS011;10218;42.874;25.320;2024-01-25T02:34:09;20.33;;;11.00;;
20114;SDS011;10218;42.874;25.320;2024-01-25T02:36:36;20.47;;;11.53;;
20114;SDS011;10218;42.874;25.320;2024-01-25T02:39:03;22.23;;;11.60;;
20114;SDS011;10218;42.874;25.320;2024-01-25T02:41:33;20.47;;;11.10;;
20114;SDS011;10218;42.874;25.320;2024-01-25T02:44:00;19.40;;;10.73;;
20114;SDS011;10218;42.874;25.320;2024-01-25T02:46:28;19.07;;;9.67;;
20114;SDS011;10218;42.874;25.320;2024-01-25T02:48:55;16.03;;;8.90;;
20114;SDS011;10218;42.874;25.320;2024-01-25T02:51:22;17.27;;;9.37;;
20114;SDS011;10218;42.874;25.320;2024-01-25T02:53:49;14.83;;;7.90;;
20114;SDS011;10218;42.874;25.320;2024-01-25T02:56:16;12.77;;;6.20;;
20114;SDS011;10218;42.874;25.320;2024-01-25T02:58:43;12.93;;;7.03;;
20114;SDS011;10218;42.874;25.320;2024-01-25T03:01:10;17.97;;;7.93;;
20114;SDS011;10218;42.874;25.320;2024-01-25T03:03:38;7.50;;;4.90;;
20114;SDS011;10218;42.874;25.320;2024-01-25T03:06:06;10.13;;;5.80;;
20114;SDS011;10218;42.874;25.320;2024-01-25T03:08:33;10.00;;;4.83;;
20114;SDS011;10218;42.874;25.320;2024-01-25T03:11:00;9.30;;;5.00;;
20114;SDS011;10218;42.874;25.320;2024-01-25T03:13:30;7.93;;;4.80;;
20114;SDS011;10218;42.874;25.320;2024-01-25T03:15:57;7.50;;;4.50;;
20114;SDS011;10218;42.874;25.320;2024-01-25T03:18:25;8.37;;;4.97;;
20114;SDS011;10218;42.874;25.320;2024-01-25T03:20:52;9.13;;;4.63;;
20114;SDS011;10218;42.874;25.320;2024-01-25T03:23:20;7.33;;;4.60;;
20114;SDS011;10218;42.874;25.320;2024-01-25T03:25:48;7.63;;;4.33;;
20114;SDS011;10218;42.874;25.320;2024-01-25T03:28:15;7.33;;;4.13;;
20114;SDS011;10218;42.874;25.320;2024-01-25T03:30:43;6.60;;;4.50;;
20114;SDS011;10218;42.874;25.320;2024-01-25T03:33:10;6.73;;;3.90;;
20114;SDS011;10218;42.874;25.320;2024-01-25T03:35:37;6.50;;;3.70;;
20114;SDS011;10218;42.874;25.320;2024-01-25T03:38:04;6.90;;;3.97;;
20114;SDS011;10218;42.874;25.320;2024-01-25T03:40:31;5.97;;;3.77;;
20114;SDS011;10218;42.874;25.320;2024-01-25T03:42:58;7.57;;;3.90;;
20114;SDS011;10218;42.874;25.320;2024-01-25T03:45:28;5.57;;;3.23;;
20114;SDS011;10218;42.874;25.320;2024-01-25T03:47:57;8.30;;;3.57;;
20114;SDS011;10218;42.874;25.320;2024-01-25T03:50:24;4.43;;;2.70;;
20114;SDS011;10218;42.874;25.320;2024-01-25T03:52:51;5.97;;;3.23;;
20114;SDS011;10218;42.874;25.320;2024-01-25T03:55:18;5.60;;;2.90;;
20114;SDS011;10218;42.874;25.320;2024-01-25T03:57:45;5.60;;;2.77;;
20114;SDS011;10218;42.874;25.320;2024-01-25T04:00:12;6.10;;;2.57;;
20114;SDS011;10218;42.874;25.320;2024-01-25T04:02:40;5.67;;;2.77;;
20114;SDS011;10218;42.874;25.320;2024-01-25T04:05:07;4.90;;;2.70;;
20114;SDS011;10218;42.874;25.320;2024-01-25T04:07:35;6.20;;;2.20;;
20114;SDS011;10218;42.874;25.320;2024-01-25T04:10:02;4.57;;;2.17;;
20114;SDS011;10218;42.874;25.320;2024-01-25T04:12:29;3.27;;;2.10;;
20114;SDS011;10218;42.874;25.320;2024-01-25T04:14:57;3.57;;;2.03;;
20114;SDS011;10218;42.874;25.320;2024-01-25T04:17:25;4.47;;;2.37;;
20114;SDS011;10218;42.874;25.320;2024-01-25T04:19:52;5.20;;;2.00;;
20114;SDS011;10218;42.874;25.320;2024-01-25T04:22:19;3.97;;;2.20;;
20114;SDS011;10218;42.874;25.320;2024-01-25T04:24:46;7.23;;;2.40;;
20114;SDS011;10218;42.874;25.320;2024-01-25T04:27:15;3.63;;;1.87;;
20114;SDS011;10218;42.874;25.320;2024-01-25T04:29:43;4.60;;;1.87;;
20114;SDS011;10218;42.874;25.320;2024-01-25T04:32:10;2.77;;;1.80;;
20114;SDS011;10218;42.874;25.320;2024-01-25T04:34:39;3.20;;;1.70;;
20114;SDS011;10218;42.874;25.320;2024-01-25T04:37:06;4.50;;;1.60;;
20114;SDS011;10218;42.874;25.320;2024-01-25T04:39:33;3.77;;;1.60;;
20114;SDS011;10218;42.874;25.320;2024-01-25T04:42:00;2.30;;;1.77;;
20114;SDS011;10218;42.874;25.320;2024-01-25T04:44:27;3.10;;;1.50;;
20114;SDS011;10218;42.874;25.320;2024-01-25T04:46:54;4.90;;;1.93;;
20114;SDS011;10218;42.874;25.320;2024-01-25T04:49:22;2.40;;;1.80;;
20114;SDS011;10218;42.874;25.320;2024-01-25T04:51:50;2.63;;;1.60;;
20114;SDS011;10218;42.874;25.320;2024-01-25T04:54:17;4.50;;;1.87;;
20114;SDS011;10218;42.874;25.320;2024-01-25T04:56:44;2.93;;;1.90;;
20114;SDS011;10218;42.874;25.320;2024-01-25T04:59:11;3.67;;;1.90;;
20114;SDS011;10218;42.874;25.320;2024-01-25T05:01:39;3.40;;;2.00;;
20114;SDS011;10218;42.874;25.320;2024-01-25T05:04:06;3.50;;;1.63;;
20114;SDS011;10218;42.874;25.320;2024-01-25T05:06:33;4.47;;;2.30;;
20114;SDS011;10218;42.874;25.320;2024-01-25T05:09:00;3.40;;;2.27;;
20114;SDS011;10218;42.874;25.320;2024-01-25T05:11:27;4.53;;;2.20;;
20114;SDS011;10218;42.874;25.320;2024-01-25T05:13:54;6.33;;;2.20;;
20114;SDS011;10218;42.874;25.320;2024-01-25T05:16:22;4.67;;;2.10;;
20114;SDS011;10218;42.874;25.320;2024-01-25T05:18:49;4.70;;;1.93;;
20114;SDS011;10218;42.874;25.320;2024-01-25T05:21:16;2.93;;;1.73;;
20114;SDS011;10218;42.874;25.320;2024-01-25T05:23:43;4.37;;;2.30;;
20114;SDS011;10218;42.874;25.320;2024-01-25T05:26:10;4.23;;;1.90;;
20114;SDS011;10218;42.874;25.320;2024-01-25T05:28:37;3.43;;;2.20;;
20114;SDS011;10218;42.874;25.320;2024-01-25T05:31:05;5.00;;;2.10;;
20114;SDS011;10218;42.874;25.320;2024-01-25T05:33:36;4.37;;;2.30;;
20114;SDS011;10218;42.874;25.320;2024-01-25T05:36:03;3.77;;;2.50;;
20114;SDS011;10218;42.874;25.320;2024-01-25T05:38:31;4.47;;;2.00;;
20114;SDS011;10218;42.874;25.320;2024-01-25T05:40:58;5.33;;;2.30;;
20114;SDS011;10218;42.874;25.320;2024-01-25T05:43:26;3.80;;;2.50;;
20114;SDS011;10218;42.874;25.320;2024-01-25T05:45:53;4.23;;;2.70;;
20114;SDS011;10218;42.874;25.320;2024-01-25T05:48:20;5.73;;;2.60;;
20114;SDS011;10218;42.874;25.320;2024-01-25T05:50:47;4.73;;;2.60;;
20114;SDS011;10218;42.874;25.320;2024-01-25T05:53:15;6.17;;;3.10;;
20114;SDS011;10218;42.874;25.320;2024-01-25T05:55:45;8.73;;;3.10;;
20114;SDS011;10218;42.874;25.320;2024-01-25T05:58:12;5.17;;;2.80;;
20114;SDS011;10218;42.874;25.320;2024-01-25T06:00:40;5.00;;;2.60;;
20114;SDS011;10218;42.874;25.320;2024-01-25T06:03:07;4.40;;;2.60;;
20114;SDS011;10218;42.874;25.320;2024-01-25T06:05:34;5.47;;;2.77;;
20114;SDS011;10218;42.874;25.320;2024-01-25T06:08:01;7.20;;;2.70;;
20114;SDS011;10218;42.874;25.320;2024-01-25T06:10:28;3.90;;;2.80;;
20114;SDS011;10218;42.874;25.320;2024-01-25T06:12:56;5.60;;;2.80;;
20114;SDS011;10218;42.874;25.320;2024-01-25T06:15:23;8.00;;;3.10;;
20114;SDS011;10218;42.874;25.320;2024-01-25T06:17:50;6.57;;;3.10;;
20114;SDS011;10218;42.874;25.320;2024-01-25T06:20:17;5.80;;;3.40;;
20114;SDS011;10218;42.874;25.320;2024-01-25T06:22:45;5.30;;;3.00;;
20114;SDS011;10218;42.874;25.320;2024-01-25T06:25:12;7.90;;;3.60;;
20114;SDS011;10218;42.874;25.320;2024-01-25T06:27:39;5.97;;;3.33;;
20114;SDS011;10218;42.874;25.320;2024-01-25T06:30:06;7.60;;;3.43;;
20114;SDS011;10218;42.874;25.320;2024-01-25T06:32:34;5.53;;;3.37;;
20114;SDS011;10218;42.874;25.320;2024-01-25T06:35:01;7.00;;;2.93;;
20114;SDS011;10218;42.874;25.320;2024-01-25T06:37:31;6.83;;;3.80;;
20114;SDS011;10218;42.874;25.320;2024-01-25T06:39:58;6.60;;;3.70;;
20114;SDS011;10218;42.874;25.320;2024-01-25T06:42:25;5.43;;;3.23;;
20114;SDS011;10218;42.874;25.320;2024-01-25T06:44:52;10.33;;;3.03;;
20114;SDS011;10218;42.874;25.320;2024-01-25T06:47:20;5.33;;;2.93;;
20114;SDS011;10218;42.874;25.320;2024-01-25T06:49:47;5.93;;;3.13;;
20114;SDS011;10218;42.874;25.320;2024-01-25T06:52:18;7.07;;;2.87;;
20114;SDS011;10218;42.874;25.320;2024-01-25T06:54:45;6.63;;;3.00;;
20114;SDS011;10218;42.874;25.320;2024-01-25T06:57:13;8.50;;;4.03;;
20114;SDS011;10218;42.874;25.320;2024-01-25T06:59:40;7.13;;;3.97;;
20114;SDS011;10218;42.874;25.320;2024-01-25T07:02:08;6.30;;;3.20;;
20114;SDS011;10218;42.874;25.320;2024-01-25T07:04:35;10.90;;;3.27;;
20114;SDS011;10218;42.874;25.320;2024-01-25T07:07:04;6.60;;;2.47;;
20114;SDS011;10218;42.874;25.320;2024-01-25T07:09:32;5.90;;;2.80;;
20114;SDS011;10218;42.874;25.320;2024-01-25T07:11:59;7.90;;;3.20;;
20114;SDS011;10218;42.874;25.320;2024-01-25T07:14:26;5.50;;;3.20;;
20114;SDS011;10218;42.874;25.320;2024-01-25T07:16:53;5.30;;;2.57;;
20114;SDS011;10218;42.874;25.320;2024-01-25T07:19:20;6.73;;;3.17;;
20114;SDS011;10218;42.874;25.320;2024-01-25T07:21:47;8.77;;;3.03;;
20114;SDS011;10218;42.874;25.320;2024-01-25T07:24:14;5.57;;;3.00;;
20114;SDS011;10218;42.874;25.320;2024-01-25T07:26:42;8.03;;;2.80;;
20114;SDS011;10218;42.874;25.320;2024-01-25T07:29:09;5.33;;;2.80;;
20114;SDS011;10218;42.874;25.320;2024-01-25T07:31:36;6.53;;;2.80;;
20114;SDS011;10218;42.874;25.320;2024-01-25T07:34:03;7.57;;;2.73;;
20114;SDS011;10218;42.874;25.320;2024-01-25T07:36:30;8.23;;;2.80;;
20114;SDS011;10218;42.874;25.320;2024-01-25T07:38:58;10.43;;;3.70;;
20114;SDS011;10218;42.874;25.320;2024-01-25T07:41:25;5.90;;;2.50;;
20114;SDS011;10218;42.874;25.320;2024-01-25T07:43:52;6.73;;;2.60;;
20114;SDS011;10218;42.874;25.320;2024-01-25T07:46:22;7.77;;;2.67;;
20114;SDS011;10218;42.874;25.320;2024-01-25T07:48:51;10.53;;;3.20;;
20114;SDS011;10218;42.874;25.320;2024-01-25T07:51:18;8.73;;;2.73;;
20114;SDS011;10218;42.874;25.320;2024-01-25T07:53:45;6.30;;;3.37;;
20114;SDS011;10218;42.874;25.320;2024-01-25T07:56:13;6.40;;;2.67;;
20114;SDS011;10218;42.874;25.320;2024-01-25T07:58:40;7.90;;;2.97;;
20114;SDS011;10218;42.874;25.320;2024-01-25T08:01:07;8.00;;;3.43;;
20114;SDS011;10218;42.874;25.320;2024-01-25T08:03:36;10.63;;;3.40;;
20114;SDS011;10218;42.874;25.320;2024-01-25T08:06:03;9.43;;;3.57;;
20114;SDS011;10218;42.874;25.320;2024-01-25T08:08:31;9.93;;;3.67;;
20114;SDS011;10218;42.874;25.320;2024-01-25T08:10:59;8.10;;;3.00;;
20114;SDS011;10218;42.874;25.320;2024-01-25T08:13:26;9.10;;;2.80;;
20114;SDS011;10218;42.874;25.320;2024-01-25T08:15:56;10.53;;;3.57;;
20114;SDS011;10218;42.874;25.320;2024-01-25T08:18:24;7.70;;;3.23;;
20114;SDS011;10218;42.874;25.320;2024-01-25T08:20:51;7.47;;;3.00;;
20114;SDS011;10218;42.874;25.320;2024-01-25T08:23:18;5.30;;;2.83;;
20114;SDS011;10218;42.874;25.320;2024-01-25T08:25:46;5.27;;;2.60;;
20114;SDS011;10218;42.874;25.320;2024-01-25T08:28:13;9.73;;;3.17;;
20114;SDS011;10218;42.874;25.320;2024-01-25T08:30:40;9.57;;;3.63;;
20114;SDS011;10218;42.874;25.320;2024-01-25T08:33:10;8.40;;;3.30;;
20114;SDS011;10218;42.874;25.320;2024-01-25T08:35:37;9.87;;;3.07;;
20114;SDS011;10218;42.874;25.320;2024-01-25T08:38:06;8.80;;;2.80;;
20114;SDS011;10218;42.874;25.320;2024-01-25T08:40:33;9.87;;;3.70;;
20114;SDS011;10218;42.874;25.320;2024-01-25T08:43:01;6.57;;;3.13;;
20114;SDS011;10218;42.874;25.320;2024-01-25T08:45:28;6.40;;;2.90;;
20114;SDS011;10218;42.874;25.320;2024-01-25T08:47:55;10.77;;;3.00;;
20114;SDS011;10218;42.874;25.320;2024-01-25T08:50:23;10.83;;;2.70;;
20114;SDS011;10218;42.874;25.320;2024-01-25T08:52:52;15.90;;;3.23;;
20114;SDS011;10218;42.874;25.320;2024-01-25T08:55:20;7.43;;;3.20;;
20114;SDS011;10218;42.874;25.320;2024-01-25T08:57:47;10.20;;;3.10;;
20114;SDS011;10218;42.874;25.320;2024-01-25T09:00:15;8.63;;;2.70;;
20114;SDS011;10218;42.874;25.320;2024-01-25T09:02:42;9.50;;;2.97;;
20114;SDS011;10218;42.874;25.320;2024-01-25T09:05:09;13.27;;;4.00;;
20114;SDS011;10218;42.874;25.320;2024-01-25T09:07:37;8.53;;;3.00;;
20114;SDS011;10218;42.874;25.320;2024-01-25T09:10:05;8.77;;;3.00;;
20114;SDS011;10218;42.874;25.320;2024-01-25T09:12:33;8.70;;;3.53;;
20114;SDS011;10218;42.874;25.320;2024-01-25T09:15:01;8.63;;;2.80;;
20114;SDS011;10218;42.874;25.320;2024-01-25T09:17:29;9.50;;;3.17;;
20114;SDS011;10218;42.874;25.320;2024-01-25T09:19:56;9.33;;;2.70;;
20114;SDS011;10218;42.874;25.320;2024-01-25T09:22:27;9.63;;;4.03;;
20114;SDS011;10218;42.874;25.320;2024-01-25T09:24:55;9.70;;;2.60;;
20114;SDS011;10218;42.874;25.320;2024-01-25T09:27:22;7.00;;;2.77;;
20114;SDS011;10218;42.874;25.320;2024-01-25T09:29:49;10.50;;;2.67;;
20114;SDS011;10218;42.874;25.320;2024-01-25T09:32:16;8.70;;;3.07;;
20114;SDS011;10218;42.874;25.320;2024-01-25T09:34:43;10.33;;;3.03;;
20114;SDS011;10218;42.874;25.320;2024-01-25T09:37:10;8.57;;;3.10;;
20114;SDS011;10218;42.874;25.320;2024-01-25T09:39:38;8.90;;;3.60;;
20114;SDS011;10218;42.874;25.320;2024-01-25T09:42:05;7.77;;;2.87;;
20114;SDS011;10218;42.874;25.320;2024-01-25T09:44:34;9.53;;;3.60;;
20114;SDS011;10218;42.874;25.320;2024-01-25T09:47:02;8.63;;;3.47;;
20114;SDS011;10218;42.874;25.320;2024-01-25T09:49:32;14.23;;;3.63;;
20114;SDS011;10218;42.874;25.320;2024-01-25T09:51:59;11.60;;;3.70;;
20114;SDS011;10218;42.874;25.320;2024-01-25T09:54:34;10.63;;;3.40;;
20114;SDS011;10218;42.874;25.320;2024-01-25T09:57:14;14.53;;;3.10;;
20114;SDS011;10218;42.874;25.320;2024-01-25T09:59:45;9.57;;;3.27;;
20114;SDS011;10218;42.874;25.320;2024-01-25T10:02:12;10.23;;;3.30;;
20114;SDS011;10218;42.874;25.320;2024-01-25T10:04:40;9.10;;;3.40;;
20114;SDS011;10218;42.874;25.320;2024-01-25T10:07:07;14.30;;;3.77;;
20114;SDS011;10218;42.874;25.320;2024-01-25T10:09:38;9.83;;;3.00;;
20114;SDS011;10218;42.874;25.320;2024-01-25T10:12:06;8.33;;;3.10;;
20114;SDS011;10218;42.874;25.320;2024-01-25T10:14:35;10.03;;;3.77;;
20114;SDS011;10218;42.874;25.320;2024-01-25T10:17:02;8.53;;;3.47;;
20114;SDS011;10218;42.874;25.320;2024-01-25T10:19:33;8.73;;;3.43;;
20114;SDS011;10218;42.874;25.320;2024-01-25T10:22:00;10.47;;;3.40;;
20114;SDS011;10218;42.874;25.320;2024-01-25T10:24:28;8.10;;;3.37;;
20114;SDS011;10218;42.874;25.320;2024-01-25T10:26:55;11.67;;;3.33;;
20114;SDS011;10218;42.874;25.320;2024-01-25T10:29:25;10.63;;;2.90;;
20114;SDS011;10218;42.874;25.320;2024-01-25T10:31:52;12.83;;;3.53;;
20114;SDS011;10218;42.874;25.320;2024-01-25T10:34:20;7.23;;;3.07;;
20114;SDS011;10218;42.874;25.320;2024-01-25T10:36:49;14.07;;;5.17;;
20114;SDS011;10218;42.874;25.320;2024-01-25T10:39:18;9.53;;;3.57;;
20114;SDS011;10218;42.874;25.320;2024-01-25T10:41:47;9.13;;;3.33;;
20114;SDS011;10218;42.874;25.320;2024-01-25T10:44:17;11.60;;;2.83;;
20114;SDS011;10218;42.874;25.320;2024-01-25T10:46:47;12.70;;;3.57;;
20114;SDS011;10218;42.874;25.320;2024-01-25T10:49:16;6.60;;;2.70;;
20114;SDS011;10218;42.874;25.320;2024-01-25T10:51:44;7.73;;;3.20;;
20114;SDS011;10218;42.874;25.320;2024-01-25T10:54:13;9.50;;;2.97;;
20114;SDS011;10218;42.874;25.320;2024-01-25T10:56:41;11.60;;;4.77;;
20114;SDS011;10218;42.874;25.320;2024-01-25T10:59:10;11.97;;;5.00;;
20114;SDS011;10218;42.874;25.320;2024-01-25T11:01:44;9.80;;;2.90;;
20114;SDS011;10218;42.874;25.320;2024-01-25T11:04:12;12.57;;;3.50;;
20114;SDS011;10218;42.874;25.320;2024-01-25T11:06:43;8.63;;;2.47;;
20114;SDS011;10218;42.874;25.320;2024-01-25T11:09:18;10.80;;;3.80;;
20114;SDS011;10218;42.874;25.320;2024-01-25T11:11:47;8.47;;;2.73;;
20114;SDS011;10218;42.874;25.320;2024-01-25T11:14:16;9.17;;;2.63;;
20114;SDS011;10218;42.874;25.320;2024-01-25T11:16:43;6.63;;;2.90;;
20114;SDS011;10218;42.874;25.320;2024-01-25T11:19:20;8.53;;;2.33;;
20114;SDS011;10218;42.874;25.320;2024-01-25T11:21:52;8.53;;;3.00;;
20114;SDS011;10218;42.874;25.320;2024-01-25T11:26:48;10.23;;;3.20;;
20114;SDS011;10218;42.874;25.320;2024-01-25T11:29:17;8.50;;;3.10;;
20114;SDS011;10218;42.874;25.320;2024-01-25T11:31:49;9.93;;;2.97;;
20114;SDS011;10218;42.874;25.320;2024-01-25T11:34:18;9.30;;;2.87;;
20114;SDS011;10218;42.874;25.320;2024-01-25T11:36:45;8.77;;;3.27;;
20114;SDS011;10218;42.874;25.320;2024-01-25T11:39:13;9.37;;;3.27;;
20114;SDS011;10218;42.874;25.320;2024-01-25T11:41:42;11.13;;;3.80;;
20114;SDS011;10218;42.874;25.320;2024-01-25T11:44:11;9.43;;;3.37;;
20114;SDS011;10218;42.874;25.320;2024-01-25T11:46:38;10.30;;;2.90;;
20114;SDS011;10218;42.874;25.320;2024-01-25T11:49:06;14.33;;;4.00;;
20114;SDS011;10218;42.874;25.320;2024-01-25T11:51:33;12.37;;;4.27;;
20114;SDS011;10218;42.874;25.320;2024-01-25T11:54:01;9.27;;;3.40;;
20114;SDS011;10218;42.874;25.320;2024-01-25T11:56:33;12.27;;;3.83;;
20114;SDS011;10218;42.874;25.320;2024-01-25T11:59:05;13.00;;;3.90;;
20114;SDS011;10218;42.874;25.320;2024-01-25T12:01:32;19.87;;;6.37;;
20114;SDS011;10218;42.874;25.320;2024-01-25T12:04:00;11.30;;;3.90;;
20114;SDS011;10218;42.874;25.320;2024-01-25T12:06:28;11.40;;;4.10;;
20114;SDS011;10218;42.874;25.320;2024-01-25T12:09:05;13.60;;;4.30;;
20114;SDS011;10218;42.874;25.320;2024-01-25T12:11:36;13.57;;;4.40;;
20114;SDS011;10218;42.874;25.320;2024-01-25T12:14:03;12.10;;;3.93;;
20114;SDS011;10218;42.874;25.320;2024-01-25T12:16:32;14.33;;;4.97;;
20114;SDS011;10218;42.874;25.320;2024-01-25T12:19:01;9.70;;;3.50;;
20114;SDS011;10218;42.874;25.320;2024-01-25T12:21:28;8.40;;;4.07;;
20114;SDS011;10218;42.874;25.320;2024-01-25T12:23:55;14.40;;;3.43;;
20114;SDS011;10218;42.874;25.320;2024-01-25T12:26:25;10.57;;;3.40;;
20114;SDS011;10218;42.874;25.320;2024-01-25T12:28:52;8.57;;;2.70;;
20114;SDS011;10218;42.874;25.320;2024-01-25T12:31:19;8.43;;;3.50;;
20114;SDS011;10218;42.874;25.320;2024-01-25T12:33:47;11.90;;;4.00;;
20114;SDS011;10218;42.874;25.320;2024-01-25T12:36:14;9.47;;;3.70;;
20114;SDS011;10218;42.874;25.320;2024-01-25T12:38:41;9.63;;;3.40;;
20114;SDS011;10218;42.874;25.320;2024-01-25T12:41:08;12.47;;;3.50;;
20114;SDS011;10218;42.874;25.320;2024-01-25T12:43:35;9.20;;;3.60;;
20114;SDS011;10218;42.874;25.320;2024-01-25T12:46:03;11.77;;;4.17;;
20114;SDS011;10218;42.874;25.320;2024-01-25T12:48:32;11.13;;;4.20;;
20114;SDS011;10218;42.874;25.320;2024-01-25T12:50:59;15.07;;;3.33;;
20114;SDS011;10218;42.874;25.320;2024-01-25T12:53:26;11.93;;;3.10;;
20114;SDS011;10218;42.874;25.320;2024-01-25T12:55:54;11.50;;;3.57;;
20114;SDS011;10218;42.874;25.320;2024-01-25T12:58:21;10.83;;;3.50;;
20114;SDS011;10218;42.874;25.320;2024-01-25T13:00:48;17.27;;;5.47;;
20114;SDS011;10218;42.874;25.320;2024-01-25T13:03:15;13.63;;;5.10;;
20114;SDS011;10218;42.874;25.320;2024-01-25T13:05:42;8.47;;;3.43;;
20114;SDS011;10218;42.874;25.320;2024-01-25T13:08:09;10.77;;;3.30;;
20114;SDS011;10218;42.874;25.320;2024-01-25T13:10:37;10.27;;;3.77;;
20114;SDS011;10218;42.874;25.320;2024-01-25T13:13:04;12.63;;;3.93;;
20114;SDS011;10218;42.874;25.320;2024-01-25T13:15:31;12.00;;;3.33;;
20114;SDS011;10218;42.874;25.320;2024-01-25T13:17:58;8.43;;;3.87;;
20114;SDS011;10218;42.874;25.320;2024-01-25T13:20:27;13.47;;;3.30;;
20114;SDS011;10218;42.874;25.320;2024-01-25T13:22:54;12.50;;;3.53;;
20114;SDS011;10218;42.874;25.320;2024-01-25T13:25:22;13.63;;;4.67;;
20114;SDS011;10218;42.874;25.320;2024-01-25T13:27:49;10.33;;;3.47;;
20114;SDS011;10218;42.874;25.320;2024-01-25T13:30:16;8.60;;;3.43;;
20114;SDS011;10218;42.874;25.320;2024-01-25T13:32:44;11.40;;;3.60;;
20114;SDS011;10218;42.874;25.320;2024-01-25T13:35:11;8.47;;;3.60;;
20114;SDS011;10218;42.874;25.320;2024-01-25T13:37:38;8.53;;;3.27;;
20114;SDS011;10218;42.874;25.320;2024-01-25T13:40:06;14.43;;;3.30;;
20114;SDS011;10218;42.874;25.320;2024-01-25T13:42:33;16.23;;;4.97;;
20114;SDS011;10218;42.874;25.320;2024-01-25T13:45:00;12.13;;;4.57;;
20114;SDS011;10218;42.874;25.320;2024-01-25T13:47:28;12.23;;;3.60;;
20114;SDS011;10218;42.874;25.320;2024-01-25T13:49:55;13.10;;;3.60;;
20114;SDS011;10218;42.874;25.320;2024-01-25T13:52:22;13.90;;;3.87;;
20114;SDS011;10218;42.874;25.320;2024-01-25T13:54:49;10.43;;;3.47;;
20114;SDS011;10218;42.874;25.320;2024-01-25T13:57:16;13.23;;;3.97;;
20114;SDS011;10218;42.874;25.320;2024-01-25T13:59:43;17.13;;;3.90;;
20114;SDS011;10218;42.874;25.320;2024-01-25T14:02:11;33.00;;;5.07;;
20114;SDS011;10218;42.874;25.320;2024-01-25T14:04:38;13.33;;;4.87;;
20114;SDS011;10218;42.874;25.320;2024-01-25T14:07:05;16.27;;;5.03;;
20114;SDS011;10218;42.874;25.320;2024-01-25T14:09:32;11.40;;;4.40;;
20114;SDS011;10218;42.874;25.320;2024-01-25T14:12:00;18.53;;;4.33;;
20114;SDS011;10218;42.874;25.320;2024-01-25T14:14:27;14.63;;;4.23;;
20114;SDS011;10218;42.874;25.320;2024-01-25T14:16:54;12.40;;;4.53;;
20114;SDS011;10218;42.874;25.320;2024-01-25T14:19:21;14.97;;;3.90;;
20114;SDS011;10218;42.874;25.320;2024-01-25T14:21:49;16.13;;;4.13;;
20114;SDS011;10218;42.874;25.320;2024-01-25T14:24:20;12.60;;;4.20;;
20114;SDS011;10218;42.874;25.320;2024-01-25T14:26:47;16.33;;;4.80;;
20114;SDS011;10218;42.874;25.320;2024-01-25T14:29:14;15.93;;;4.40;;
20114;SDS011;10218;42.874;25.320;2024-01-25T14:31:41;16.70;;;4.47;;
20114;SDS011;10218;42.874;25.320;2024-01-25T14:34:09;20.00;;;9.17;;